Time;durP1;ratioP1;P1;durP2;ratioP2;P2;SDS_P1;SDS_P2;PMS_P1;PMS_P2;Temp;Humidity;BMP_temperature;BMP_pressure;BME280_temperature;BME280_humidity;BME280_pressure;Samples;Min_cycle;Max_cycle;Signal;HPM_P1;HPM_P2
2023/01/08 00:01:09;;;;;;;4.35;2.88;;;7.30;99.90;;;;;;5072308;28;20105;-43
2023/01/08 00:03:35;;;;;;;3.58;2.65;;;7.40;99.90;;;;;;5070385;28;20028;-43
2023/01/08 00:06:03;;;;;;;5.50;3.60;;;7.40;99.90;;;;;;5070253;28;20453;-42
2023/01/08 00:08:29;;;;;;;4.28;3.08;;;7.40;99.90;;;;;;5061179;28;20100;-42
2023/01/08 00:10:55;;;;;;;4.18;3.10;;;7.40;99.90;;;;;;5070030;28;20024;-41
2023/01/08 00:13:21;;;;;;;4.57;3.45;;;7.40;99.90;;;;;;5071193;28;20051;-42
2023/01/08 00:15:47;;;;;;;4.68;3.30;;;7.40;99.90;;;;;;5071661;28;20029;-41
2023/01/08 00:18:12;;;;;;;6.10;3.65;;;7.40;99.90;;;;;;5070276;28;20028;-41
2023/01/08 00:20:42;;;;;;;5.35;4.05;;;7.40;99.90;;;;;;5071594;28;20021;-41
2023/01/08 00:23:12;;;;;;;4.75;2.90;;;7.30;99.90;;;;;;5071320;28;20021;-42
2023/01/08 00:25:37;;;;;;;3.75;2.90;;;7.30;99.90;;;;;;5071755;28;20020;-43
2023/01/08 00:28:03;;;;;;;6.72;3.67;;;7.40;99.90;;;;;;5071093;28;20032;-41
2023/01/08 00:30:29;;;;;;;4.13;3.15;;;7.40;99.90;;;;;;5070193;28;20024;-41
2023/01/08 00:32:54;;;;;;;5.60;3.25;;;7.40;99.90;;;;;;5070980;28;20078;-42
2023/01/08 00:35:20;;;;;;;3.90;3.13;;;7.40;99.90;;;;;;5070776;28;20055;-42
2023/01/08 00:37:48;;;;;;;5.57;3.45;;;7.40;99.90;;;;;;5062969;28;20024;-41
2023/01/08 00:40:15;;;;;;;4.47;2.92;;;7.40;99.90;;;;;;5066870;28;20104;-42
2023/01/08 00:42:40;;;;;;;3.35;3.00;;;7.40;99.90;;;;;;5069190;28;20567;-42
2023/01/08 00:45:06;;;;;;;4.47;3.22;;;7.40;99.90;;;;;;5061454;28;20060;-41
2023/01/08 00:47:32;;;;;;;4.60;2.90;;;7.40;99.90;;;;;;5053387;28;20036;-41
2023/01/08 00:49:57;;;;;;;4.82;2.97;;;7.40;99.90;;;;;;5051084;28;20755;-41
2023/01/08 00:52:23;;;;;;;3.58;3.28;;;7.50;99.90;;;;;;5049248;28;20610;-41
2023/01/08 00:54:49;;;;;;;3.00;2.70;;;7.50;99.90;;;;;;5050996;28;20492;-41
2023/01/08 00:57:15;;;;;;;4.45;3.33;;;7.50;99.90;;;;;;5050043;28;20059;-42
2023/01/08 00:59:40;;;;;;;4.55;2.83;;;7.60;99.90;;;;;;5050627;28;20025;-41
2023/01/08 01:02:06;;;;;;;3.78;2.92;;;7.60;99.90;;;;;;5050456;28;20025;-42
2023/01/08 01:04:31;;;;;;;5.10;4.10;;;7.60;99.90;;;;;;5050787;28;20442;-42
2023/01/08 01:06:57;;;;;;;4.70;3.58;;;7.60;99.90;;;;;;5049401;28;20033;-42
2023/01/08 01:09:23;;;;;;;4.93;3.00;;;7.70;99.90;;;;;;5050799;28;20482;-42
2023/01/08 01:11:48;;;;;;;4.05;3.00;;;7.70;99.90;;;;;;5050133;28;20035;-42
2023/01/08 01:14:15;;;;;;;4.88;3.22;;;7.80;99.90;;;;;;5055941;28;20119;-42
2023/01/08 01:16:41;;;;;;;4.13;3.00;;;7.80;99.90;;;;;;5062157;28;20043;-47
2023/01/08 01:19:07;;;;;;;5.45;3.50;;;7.90;99.90;;;;;;5071043;28;20024;-41
2023/01/08 01:21:33;;;;;;;6.20;3.13;;;8.00;99.90;;;;;;5070446;28;20028;-42
2023/01/08 01:24:01;;;;;;;4.05;2.88;;;8.10;99.90;;;;;;5070248;28;20024;-42
2023/01/08 01:26:27;;;;;;;6.68;3.00;;;8.10;99.90;;;;;;5070371;28;20070;-41
2023/01/08 01:28:55;;;;;;;4.95;3.28;;;8.20;99.90;;;;;;5068699;28;20024;-42
2023/01/08 01:31:22;;;;;;;3.25;2.85;;;8.30;99.90;;;;;;5069323;28;20112;-41
2023/01/08 01:33:48;;;;;;;4.28;3.00;;;8.30;99.90;;;;;;5070003;28;20020;-41
2023/01/08 01:36:15;;;;;;;5.03;3.20;;;8.40;99.90;;;;;;5070428;28;20024;-41
2023/01/08 01:38:49;;;;;;;5.07;3.25;;;8.40;99.90;;;;;;5070436;28;20036;-41
2023/01/08 01:41:40;;;;;;;4.25;2.85;;;8.50;99.90;;;;;;5069213;28;20477;-41
2023/01/08 01:44:34;;;;;;;4.88;3.15;;;8.50;99.90;;;;;;5061177;28;20038;-41
2023/01/08 01:47:31;;;;;;;5.78;3.05;;;8.40;99.90;;;;;;5054527;28;20020;-42
2023/01/08 01:50:02;;;;;;;4.10;2.80;;;8.40;99.90;;;;;;5069972;28;20039;-41
2023/01/08 01:52:30;;;;;;;4.53;3.00;;;8.30;99.90;;;;;;5068360;28;20020;-41
2023/01/08 01:54:56;;;;;;;4.55;3.08;;;8.20;99.90;;;;;;5069843;28;20025;-41
2023/01/08 01:57:23;;;;;;;4.30;2.88;;;8.20;99.90;;;;;;5069658;28;20032;-42
2023/01/08 01:59:50;;;;;;;3.42;2.42;;;8.10;99.90;;;;;;5069678;28;20551;-42
2023/01/08 02:02:15;;;;;;;3.25;2.53;;;8.00;99.90;;;;;;5069535;28;20062;-41
2023/01/08 02:04:41;;;;;;;9.95;3.17;;;8.00;99.90;;;;;;5068002;28;20680;-41
2023/01/08 02:07:32;;;;;;;3.80;2.70;;;8.00;99.90;;;;;;5069456;28;20021;-41
2023/01/08 02:10:19;;;;;;;3.92;3.50;;;8.00;99.90;;;;;;5068153;28;20573;-41
2023/01/08 02:12:50;;;;;;;4.55;2.80;;;7.90;99.90;;;;;;5066570;28;20070;-41
2023/01/08 02:15:57;;;;;;;4.32;2.65;;;7.90;99.90;;;;;;5056306;28;20025;-44
2023/01/08 02:18:47;;;;;;;5.60;3.00;;;7.80;99.90;;;;;;5028071;28;20045;-41
2023/01/08 02:21:27;;;;;;;3.90;2.88;;;7.80;99.90;;;;;;5028337;28;20032;-42
2023/01/08 02:24:08;;;;;;;5.82;3.38;;;7.80;99.90;;;;;;5027975;28;20028;-42
2023/01/08 02:26:35;;;;;;;4.53;2.90;;;8.00;99.90;;;;;;5028464;28;20029;-42
2023/01/08 02:29:13;;;;;;;5.10;3.50;;;8.10;99.90;;;;;;5029058;28;20083;-43
2023/01/08 02:31:41;;;;;;;4.03;3.00;;;8.20;99.90;;;;;;5029192;28;20029;-42
2023/01/08 02:34:07;;;;;;;5.38;3.28;;;8.30;99.90;;;;;;5029069;28;20025;-44
2023/01/08 02:36:45;;;;;;;6.22;3.40;;;8.50;99.90;;;;;;5029200;28;20060;-43
2023/01/08 02:39:41;;;;;;;5.43;3.20;;;8.60;99.90;;;;;;5029392;28;20080;-43
2023/01/08 02:42:44;;;;;;;5.15;3.60;;;8.90;99.90;;;;;;5028817;28;20495;-43
2023/01/08 02:45:25;;;;;;;3.78;2.72;;;9.10;99.90;;;;;;5050421;28;20037;-43
2023/01/08 02:47:58;;;;;;;4.43;3.60;;;9.20;99.90;;;;;;5027638;28;20120;-43
2023/01/08 02:50:28;;;;;;;5.57;3.88;;;9.30;99.90;;;;;;5029127;28;20029;-43
2023/01/08 02:53:03;;;;;;;7.80;3.15;;;9.40;99.90;;;;;;5027241;28;20049;-43
2023/01/08 02:55:30;;;;;;;6.97;3.30;;;9.40;99.90;;;;;;5027854;28;20033;-43
2023/01/08 02:57:57;;;;;;;3.88;2.85;;;9.40;99.90;;;;;;5028847;28;20036;-44
2023/01/08 03:00:23;;;;;;;3.42;2.78;;;9.40;99.90;;;;;;5027345;28;20013;-44
2023/01/08 03:02:53;;;;;;;4.32;3.08;;;9.30;99.90;;;;;;5028899;28;20018;-44
2023/01/08 03:05:25;;;;;;;5.43;3.65;;;9.30;99.90;;;;;;5028574;28;20103;-44
2023/01/08 03:07:50;;;;;;;4.93;3.25;;;9.20;99.90;;;;;;5029075;28;20175;-45
2023/01/08 03:10:19;;;;;;;5.20;3.22;;;9.20;99.90;;;;;;5029089;28;20392;-44
2023/01/08 03:12:54;;;;;;;5.65;3.05;;;9.10;99.90;;;;;;5029600;28;20037;-43
2023/01/08 03:15:48;;;;;;;5.72;3.22;;;9.10;99.90;;;;;;5056973;28;20060;-42
2023/01/08 03:18:23;;;;;;;4.35;2.80;;;9.10;99.90;;;;;;5041952;28;20039;-44
2023/01/08 03:20:50;;;;;;;2.58;2.22;;;9.00;99.90;;;;;;5010908;28;20017;-41
2023/01/08 03:23:18;;;;;;;3.80;2.72;;;9.00;99.90;;;;;;5026900;28;20057;-42
2023/01/08 03:25:46;;;;;;;3.33;2.97;;;9.10;99.90;;;;;;5029275;28;20083;-42
2023/01/08 03:28:18;;;;;;;3.65;2.60;;;9.10;99.90;;;;;;5028754;28;20056;-42
2023/01/08 03:30:46;;;;;;;3.60;3.15;;;9.10;99.90;;;;;;5028320;28;20075;-42
2023/01/08 03:33:12;;;;;;;4.45;3.17;;;9.10;99.90;;;;;;5042628;28;20040;-41
2023/01/08 03:35:40;;;;;;;4.18;2.95;;;9.10;99.90;;;;;;5060273;28;20405;-41
2023/01/08 03:38:23;;;;;;;6.95;3.63;;;9.10;99.90;;;;;;5066708;28;20489;-42
2023/01/08 03:40:55;;;;;;;7.72;3.53;;;9.10;99.90;;;;;;5068379;28;20032;-41
2023/01/08 03:43:20;;;;;;;4.15;2.85;;;9.10;99.90;;;;;;5066516;28;20041;-42
2023/01/08 03:45:55;;;;;;;4.45;3.15;;;9.10;99.90;;;;;;5067246;28;20029;-42
2023/01/08 03:48:22;;;;;;;4.07;3.08;;;9.20;99.90;;;;;;5068241;28;20017;-42
2023/01/08 03:50:48;;;;;;;4.15;3.22;;;9.30;99.90;;;;;;5068729;28;20625;-42
2023/01/08 03:53:14;;;;;;;4.55;2.95;;;9.40;99.90;;;;;;5067901;28;20052;-42
2023/01/08 03:55:40;;;;;;;4.78;3.05;;;9.50;99.90;;;;;;5068166;28;20067;-42
2023/01/08 03:58:05;;;;;;;5.63;3.47;;;9.60;99.90;;;;;;5067057;28;20028;-42
2023/01/08 04:00:31;;;;;;;3.10;2.63;;;9.70;99.90;;;;;;5067935;28;20028;-42
2023/01/08 04:02:57;;;;;;;4.20;3.38;;;9.70;99.90;;;;;;5066392;28;20096;-42
2023/01/08 04:05:23;;;;;;;6.03;3.10;;;9.80;99.90;;;;;;5060039;28;20063;-41
2023/01/08 04:07:48;;;;;;;6.30;3.85;;;9.80;99.90;;;;;;5068258;28;20025;-42
2023/01/08 04:10:14;;;;;;;9.40;4.18;;;9.80;99.90;;;;;;5069204;28;20046;-42
2023/01/08 04:12:42;;;;;;;5.40;4.07;;;9.90;99.90;;;;;;5071348;28;20393;-42
2023/01/08 04:15:08;;;;;;;4.10;3.10;;;10.00;99.90;;;;;;5062736;28;20424;-42
2023/01/08 04:17:34;;;;;;;4.80;3.60;;;10.00;99.90;;;;;;5063257;28;20416;-44
2023/01/08 04:19:59;;;;;;;5.07;3.65;;;10.10;99.90;;;;;;5072041;28;20024;-42
2023/01/08 04:22:25;;;;;;;5.20;3.63;;;10.10;99.90;;;;;;5071084;28;20390;-43
2023/01/08 04:24:50;;;;;;;6.68;3.15;;;10.10;99.90;;;;;;5071586;28;20040;-48
2023/01/08 04:27:16;;;;;;;4.38;3.35;;;10.20;99.90;;;;;;5068000;28;20032;-43
2023/01/08 04:29:42;;;;;;;5.82;3.78;;;10.20;99.90;;;;;;5062880;28;20036;-44
2023/01/08 04:32:07;;;;;;;4.95;3.35;;;10.20;99.90;;;;;;5071036;28;20029;-43
2023/01/08 04:34:33;;;;;;;5.07;3.50;;;10.20;99.90;;;;;;5070250;28;20482;-42
2023/01/08 04:36:59;;;;;;;4.65;3.50;;;10.20;99.90;;;;;;5070115;28;20024;-43
2023/01/08 04:39:25;;;;;;;4.13;3.70;;;10.20;99.90;;;;;;5071665;28;20470;-43
2023/01/08 04:41:50;;;;;;;4.05;3.03;;;10.20;99.90;;;;;;5071045;28;20031;-43
2023/01/08 04:44:16;;;;;;;3.70;3.00;;;10.30;99.90;;;;;;5069716;28;20025;-44
2023/01/08 04:46:42;;;;;;;5.00;3.13;;;10.20;99.90;;;;;;5071563;28;20099;-43
2023/01/08 04:49:09;;;;;;;4.18;3.13;;;10.20;99.90;;;;;;5070067;28;20392;-43
2023/01/08 04:51:34;;;;;;;4.25;2.92;;;10.20;99.90;;;;;;5070105;28;20512;-42
2023/01/08 04:53:59;;;;;;;4.15;2.90;;;10.20;99.90;;;;;;5070716;28;20104;-43
2023/01/08 04:56:25;;;;;;;6.38;4.05;;;10.20;99.90;;;;;;5068786;28;20037;-43
2023/01/08 04:58:51;;;;;;;4.90;3.42;;;10.10;99.90;;;;;;5062465;28;20107;-43
2023/01/08 05:01:22;;;;;;;5.68;3.72;;;10.10;99.90;;;;;;5070955;28;20024;-42
2023/01/08 05:03:51;;;;;;;;;;;10.10;99.90;;;;;;5070931;28;20031;-43
2023/01/08 05:06:16;;;;;;;3.55;3.08;;;10.10;99.90;;;;;;5070838;28;19904;-42
2023/01/08 05:08:42;;;;;;;3.35;3.03;;;10.10;99.90;;;;;;5070932;28;20491;-42
2023/01/08 05:11:08;;;;;;;7.05;3.47;;;10.10;99.90;;;;;;5070677;28;20059;-42
2023/01/08 05:13:34;;;;;;;6.82;3.63;;;10.10;99.90;;;;;;5068951;28;20028;-41
2023/01/08 05:16:00;;;;;;;6.93;3.63;;;10.10;99.90;;;;;;5069135;28;20051;-41
2023/01/08 05:18:27;;;;;;;3.83;2.95;;;10.10;99.90;;;;;;5070591;28;20032;-42
2023/01/08 05:20:53;;;;;;;4.10;2.97;;;10.10;99.90;;;;;;5069018;28;20025;-42
2023/01/08 05:23:18;;;;;;;7.00;3.30;;;10.00;99.90;;;;;;5070024;28;20542;-42
2023/01/08 05:25:44;;;;;;;5.10;3.13;;;10.00;99.90;;;;;;5070705;28;20145;-42
2023/01/08 05:28:09;;;;;;;4.05;3.65;;;9.90;99.90;;;;;;5061546;28;20115;-47
2023/01/08 05:30:36;;;;;;;4.05;3.20;;;9.90;99.90;;;;;;5068370;28;20024;-43
2023/01/08 05:33:02;;;;;;;3.55;2.95;;;9.80;99.90;;;;;;5068769;28;20036;-43
2023/01/08 05:35:27;;;;;;;4.85;3.50;;;9.90;99.90;;;;;;5068825;28;20024;-42
2023/01/08 05:37:53;;;;;;;4.68;3.10;;;9.90;99.90;;;;;;5070037;28;20052;-42
2023/01/08 05:40:18;;;;;;;3.30;2.88;;;9.90;99.90;;;;;;5070280;28;20029;-42
2023/01/08 05:42:44;;;;;;;3.78;3.00;;;9.90;99.90;;;;;;5069497;28;20082;-42
2023/01/08 05:45:10;;;;;;;6.20;2.80;;;9.90;99.90;;;;;;5068582;28;20116;-42
2023/01/08 05:47:36;;;;;;;4.18;2.80;;;9.90;99.90;;;;;;5068773;28;20086;-41
2023/01/08 05:50:01;;;;;;;4.72;3.15;;;9.90;99.90;;;;;;5068899;28;20579;-41
2023/01/08 05:52:27;;;;;;;4.50;3.10;;;9.80;99.90;;;;;;5069339;28;20541;-42
2023/01/08 05:54:53;;;;;;;5.35;3.17;;;9.80;99.90;;;;;;5069926;28;20103;-41
2023/01/08 05:57:18;;;;;;;6.63;2.95;;;9.90;99.90;;;;;;5066098;28;20048;-42
2023/01/08 05:59:44;;;;;;;4.72;2.88;;;9.90;99.90;;;;;;5061080;28;20546;-42
2023/01/08 06:02:10;;;;;;;5.70;3.20;;;9.90;99.90;;;;;;5067928;28;20025;-43
2023/01/08 06:04:36;;;;;;;5.25;3.10;;;10.00;99.90;;;;;;5068308;28;20052;-43
2023/01/08 06:07:01;;;;;;;7.72;3.45;;;9.90;99.90;;;;;;5069559;28;20020;-43
2023/01/08 06:09:27;;;;;;;5.72;3.72;;;9.80;99.90;;;;;;5069407;28;20036;-44
2023/01/08 06:11:52;;;;;;;6.10;3.38;;;9.80;99.90;;;;;;5069139;28;20044;-43
2023/01/08 06:14:18;;;;;;;4.30;3.60;;;9.70;99.90;;;;;;5068145;28;20467;-42
2023/01/08 06:16:44;;;;;;;3.63;3.08;;;9.60;99.90;;;;;;5051741;28;20029;-42
2023/01/08 06:19:11;;;;;;;4.93;3.58;;;9.60;99.90;;;;;;5069146;28;20066;-42
2023/01/08 06:21:37;;;;;;;3.60;3.08;;;9.60;99.90;;;;;;5067946;28;20028;-42
2023/01/08 06:24:03;;;;;;;4.75;3.30;;;9.50;99.90;;;;;;5067442;28;20028;-42
2023/01/08 06:26:29;;;;;;;4.53;3.67;;;9.50;99.90;;;;;;5067006;28;20100;-42
2023/01/08 06:28:54;;;;;;;3.88;3.30;;;9.50;99.90;;;;;;5059502;28;20107;-42
2023/01/08 06:31:20;;;;;;;5.93;3.22;;;9.50;99.90;;;;;;5067865;28;20020;-42
2023/01/08 06:33:45;;;;;;;6.18;3.58;;;9.50;99.90;;;;;;5066784;28;20025;-42
2023/01/08 06:36:11;;;;;;;6.38;3.63;;;9.50;99.90;;;;;;5069258;28;20047;-42
2023/01/08 06:38:36;;;;;;;5.00;3.60;;;9.50;99.90;;;;;;5069156;28;20108;-42
2023/01/08 06:41:04;;;;;;;6.10;3.28;;;9.40;99.90;;;;;;5069242;28;20112;-42
2023/01/08 06:43:29;;;;;;;4.80;3.15;;;9.40;99.90;;;;;;5060769;28;20055;-42
2023/01/08 06:45:57;;;;;;;6.22;3.47;;;9.40;99.90;;;;;;5058581;28;20029;-41
2023/01/08 06:48:24;;;;;;;5.72;3.13;;;9.40;99.90;;;;;;5047352;28;20017;-41
2023/01/08 06:50:49;;;;;;;5.35;3.20;;;9.30;99.90;;;;;;5047559;28;20032;-43
2023/01/08 06:53:15;;;;;;;3.60;2.67;;;9.30;99.90;;;;;;5048658;28;20033;-41
2023/01/08 06:55:41;;;;;;;7.47;2.67;;;9.40;99.90;;;;;;5049423;28;20021;-42
2023/01/08 06:58:08;;;;;;;7.30;4.07;;;9.30;99.90;;;;;;5048677;28;20100;-45
2023/01/08 07:00:33;;;;;;;4.70;3.88;;;9.30;99.90;;;;;;5047111;28;20017;-42
2023/01/08 07:02:59;;;;;;;4.03;3.05;;;9.30;99.90;;;;;;5048339;28;20028;-42
2023/01/08 07:05:25;;;;;;;4.75;3.15;;;9.20;99.90;;;;;;5048390;28;20078;-42
2023/01/08 07:07:50;;;;;;;5.95;3.47;;;9.30;99.90;;;;;;5047550;28;20033;-43
2023/01/08 07:10:16;;;;;;;4.65;3.35;;;9.30;99.90;;;;;;5048780;28;20048;-42
2023/01/08 07:12:42;;;;;;;4.13;3.13;;;9.20;99.90;;;;;;5048431;28;20033;-42
2023/01/08 07:15:08;;;;;;;5.20;3.10;;;9.20;99.90;;;;;;5056484;28;20021;-42
2023/01/08 07:17:34;;;;;;;5.57;3.50;;;9.20;99.90;;;;;;5065042;28;20035;-42
2023/01/08 07:19:59;;;;;;;5.40;3.67;;;9.20;99.90;;;;;;5068748;28;20107;-42
2023/01/08 07:22:26;;;;;;;5.75;3.50;;;9.20;99.90;;;;;;5068347;28;20020;-42
2023/01/08 07:24:52;;;;;;;7.43;3.42;;;9.20;99.90;;;;;;5069026;28;20031;-42
2023/01/08 07:27:18;;;;;;;5.10;3.80;;;9.20;99.90;;;;;;5064749;28;20021;-41
2023/01/08 07:29:44;;;;;;;4.82;3.40;;;9.20;99.90;;;;;;5058119;28;20020;-42
2023/01/08 07:32:10;;;;;;;5.90;3.65;;;9.10;99.90;;;;;;5067932;28;20032;-40
2023/01/08 07:34:35;;;;;;;4.03;3.38;;;9.10;99.90;;;;;;5068638;28;20037;-41
2023/01/08 07:37:02;;;;;;;4.45;3.35;;;9.10;99.90;;;;;;5068249;28;20466;-41
2023/01/08 07:39:27;;;;;;;5.47;3.67;;;9.10;99.90;;;;;;5068358;28;20024;-41
2023/01/08 07:41:53;;;;;;;5.78;3.53;;;9.00;99.90;;;;;;5066456;28;20044;-41
2023/01/08 07:44:19;;;;;;;5.30;3.80;;;9.00;99.90;;;;;;5068424;28;20056;-41
2023/01/08 07:46:44;;;;;;;6.45;4.15;;;9.00;99.90;;;;;;5070602;28;20389;-41
2023/01/08 07:49:10;;;;;;;8.57;4.20;;;9.00;99.90;;;;;;5070715;28;20056;-41
2023/01/08 07:51:36;;;;;;;10.65;9.52;;;9.00;99.90;;;;;;5071835;28;20107;-41
2023/01/08 07:54:02;;;;;;;6.93;4.90;;;9.00;99.90;;;;;;5071536;28;20039;-42
2023/01/08 07:56:27;;;;;;;7.53;4.57;;;8.90;99.90;;;;;;5057785;28;20033;-42
2023/01/08 07:58:53;;;;;;;7.85;5.50;;;8.90;99.90;;;;;;5063268;28;20027;-41
2023/01/08 08:01:19;;;;;;;6.88;4.53;;;8.90;99.90;;;;;;5071298;28;20432;-43
2023/01/08 08:03:44;;;;;;;5.88;4.55;;;8.80;99.90;;;;;;5071377;28;20052;-41
2023/01/08 08:06:10;;;;;;;7.82;5.30;;;8.80;99.90;;;;;;5070759;28;20016;-42
2023/01/08 08:08:35;;;;;;;10.25;5.68;;;8.80;99.90;;;;;;5071841;28;20031;-42
2023/01/08 08:11:01;;;;;;;7.03;4.70;;;8.80;99.90;;;;;;5070275;28;20067;-42
2023/01/08 08:13:27;;;;;;;8.20;5.80;;;8.70;99.90;;;;;;5071417;28;20081;-42
2023/01/08 08:15:52;;;;;;;11.18;6.35;;;8.70;99.90;;;;;;5071628;28;20066;-42
2023/01/08 08:18:18;;;;;;;7.22;5.57;;;8.70;99.90;;;;;;5042186;28;20520;-42
2023/01/08 08:20:44;;;;;;;10.18;5.97;;;8.70;99.90;;;;;;5031947;28;20025;-42
2023/01/08 08:23:12;;;;;;;9.13;6.22;;;8.70;99.90;;;;;;5031105;28;20390;-42
2023/01/08 08:25:39;;;;;;;10.13;6.25;;;8.70;99.90;;;;;;5030619;28;20025;-52
2023/01/08 08:28:05;;;;;;;8.90;6.15;;;8.60;99.90;;;;;;5055142;28;20025;-52
2023/01/08 08:30:33;;;;;;;9.73;6.22;;;8.60;99.90;;;;;;5067411;28;20044;-53
2023/01/08 08:33:01;;;;;;;14.90;6.85;;;8.60;99.90;;;;;;5071028;28;20028;-52
2023/01/08 08:35:27;;;;;;;11.63;6.55;;;8.60;99.90;;;;;;5071580;28;20031;-52
2023/01/08 08:37:54;;;;;;;11.30;6.95;;;8.60;99.90;;;;;;5069915;28;20102;-52
2023/01/08 08:40:20;;;;;;;11.88;7.60;;;8.60;99.90;;;;;;5070004;28;20478;-51
2023/01/08 08:42:45;;;;;;;10.40;7.45;;;8.60;99.90;;;;;;5060031;28;20048;-53
2023/01/08 08:45:11;;;;;;;10.75;7.07;;;8.60;99.90;;;;;;5047849;28;20037;-53
2023/01/08 08:47:39;;;;;;;17.58;8.45;;;8.50;99.90;;;;;;5047617;28;20398;-53
2023/01/08 08:50:06;;;;;;;12.07;8.45;;;8.50;99.90;;;;;;5051952;28;20106;-53
2023/01/08 08:52:33;;;;;;;12.63;8.40;;;8.40;99.90;;;;;;5053527;28;20413;-53
2023/01/08 08:55:02;;;;;;;19.27;9.60;;;8.40;99.90;;;;;;5059306;28;20021;-53
2023/01/08 08:57:28;;;;;;;14.73;10.30;;;8.40;99.90;;;;;;5055136;28;20029;-53
2023/01/08 08:59:53;;;;;;;18.63;10.27;;;8.40;99.90;;;;;;5054456;28;20098;-53
2023/01/08 09:02:19;;;;;;;12.93;8.55;;;8.40;99.90;;;;;;5056413;28;20057;-52
2023/01/08 09:04:45;;;;;;;18.15;9.88;;;8.50;99.90;;;;;;5050255;28;20038;-52
2023/01/08 09:07:10;;;;;;;17.38;9.60;;;8.50;99.90;;;;;;5056037;28;20047;-51
2023/01/08 09:09:36;;;;;;;14.75;9.30;;;8.50;99.90;;;;;;5056491;28;20021;-53
2023/01/08 09:12:02;;;;;;;19.13;9.80;;;8.50;99.90;;;;;;5052854;28;20537;-53
2023/01/08 09:14:28;;;;;;;14.55;9.02;;;8.50;99.90;;;;;;5055922;28;20547;-53
2023/01/08 09:16:54;;;;;;;14.45;8.88;;;8.50;99.90;;;;;;5060443;28;20031;-54
2023/01/08 09:19:21;;;;;;;15.25;8.95;;;8.50;99.90;;;;;;5050201;28;20383;-51
2023/01/08 09:21:49;;;;;;;16.63;10.27;;;8.60;99.90;;;;;;5058043;28;20111;-51
2023/01/08 09:24:15;;;;;;;14.60;9.65;;;8.60;99.90;;;;;;5057045;28;20023;-52
2023/01/08 09:26:40;;;;;;;13.35;8.90;;;8.50;99.90;;;;;;5051176;28;20033;-53
2023/01/08 09:29:06;;;;;;;19.00;10.10;;;8.60;99.90;;;;;;5059867;28;20488;-50
2023/01/08 09:31:33;;;;;;;17.42;9.73;;;8.60;99.90;;;;;;5056841;28;20473;-50
2023/01/08 09:33:58;;;;;;;18.85;10.23;;;8.60;99.90;;;;;;5054101;28;20386;-52
2023/01/08 09:36:24;;;;;;;18.02;10.43;;;8.60;99.90;;;;;;5061641;28;20055;-51
2023/01/08 09:38:49;;;;;;;14.55;9.05;;;8.60;99.90;;;;;;5056319;28;20016;-52
2023/01/08 09:41:23;;;;;;;14.80;8.30;;;8.60;99.90;;;;;;5055461;28;20032;-49
2023/01/08 09:43:51;;;;;;;10.25;7.22;;;8.70;99.90;;;;;;5048242;28;20063;-52
2023/01/08 09:46:20;;;;;;;13.20;8.50;;;8.80;99.90;;;;;;5048302;28;20032;-52
2023/01/08 09:48:48;;;;;;;9.85;7.15;;;8.70;99.90;;;;;;5056839;28;20036;-51
2023/01/08 09:51:16;;;;;;;11.77;7.45;;;8.70;99.90;;;;;;5058627;28;20112;-52
2023/01/08 09:53:43;;;;;;;11.82;7.90;;;8.70;99.90;;;;;;5051928;28;20037;-49
2023/01/08 09:56:16;;;;;;;12.77;7.20;;;8.70;99.90;;;;;;5059784;28;20025;-52
2023/01/08 09:58:51;;;;;;;14.10;7.40;;;8.70;99.90;;;;;;5057802;28;20039;-49
2023/01/08 10:01:21;;;;;;;10.32;6.70;;;8.70;99.90;;;;;;5048324;28;20025;-51
2023/01/08 10:03:52;;;;;;;10.10;6.80;;;8.70;99.90;;;;;;5059415;28;20066;-49
2023/01/08 10:06:18;;;;;;;9.45;6.93;;;8.80;99.90;;;;;;5052516;28;20506;-49
2023/01/08 10:08:44;;;;;;;7.82;5.88;;;8.90;99.90;;;;;;5050209;28;20031;-49
2023/01/08 10:11:12;;;;;;;7.82;5.78;;;8.90;99.90;;;;;;5059336;28;20038;-50
2023/01/08 10:13:39;;;;;;;12.43;7.50;;;9.00;99.90;;;;;;5052150;28;20115;-50
2023/01/08 10:16:10;;;;;;;12.55;6.53;;;8.90;99.90;;;;;;5054058;28;20035;-52
2023/01/08 10:18:36;;;;;;;8.45;5.88;;;8.80;99.90;;;;;;5057257;28;20473;-52
2023/01/08 10:21:02;;;;;;;9.32;5.03;;;8.80;99.90;;;;;;5052207;28;20115;-52
2023/01/08 10:23:28;;;;;;;12.23;6.72;;;8.70;99.90;;;;;;5054063;28;20102;-52
2023/01/08 10:25:59;;;;;;;7.22;5.32;;;8.70;99.90;;;;;;5058506;28;20041;-51
2023/01/08 10:28:26;;;;;;;8.02;4.75;;;8.80;99.90;;;;;;5050270;28;20025;-53
2023/01/08 10:30:53;;;;;;;6.60;5.10;;;8.80;99.90;;;;;;5060343;28;20029;-51
2023/01/08 10:33:30;;;;;;;6.85;4.88;;;8.80;99.90;;;;;;5052230;28;20025;-50
2023/01/08 10:36:04;;;;;;;7.75;5.20;;;8.80;99.90;;;;;;5051964;28;20033;-51
2023/01/08 10:38:39;;;;;;;5.25;3.97;;;8.80;99.90;;;;;;5059822;28;20031;-50
2023/01/08 10:41:10;;;;;;;6.03;4.35;;;8.90;99.90;;;;;;5051609;28;20626;-51
2023/01/08 10:43:48;;;;;;;5.60;4.40;;;8.80;99.90;;;;;;5053046;28;20078;-52
2023/01/08 10:46:22;;;;;;;5.63;4.10;;;8.80;99.90;;;;;;5057681;28;20818;-52
2023/01/08 10:48:52;;;;;;;11.85;4.53;;;8.70;99.90;;;;;;5051917;28;20391;-51
2023/01/08 10:51:22;;;;;;;7.05;4.70;;;8.70;99.90;;;;;;5054079;28;20082;-50
2023/01/08 10:53:48;;;;;;;5.32;4.13;;;8.70;99.90;;;;;;5057460;28;20024;-51
2023/01/08 10:56:27;;;;;;;7.05;4.07;;;8.70;99.90;;;;;;5047618;28;20055;-53
2023/01/08 10:58:53;;;;;;;5.82;4.03;;;8.80;99.90;;;;;;5049422;28;20517;-52
2023/01/08 11:01:28;;;;;;;5.45;3.85;;;8.80;99.90;;;;;;5051881;28;20029;-52
2023/01/08 11:04:03;;;;;;;5.78;3.83;;;8.80;99.90;;;;;;5050643;28;20048;-53
2023/01/08 11:06:31;;;;;;;5.25;3.40;;;8.80;99.90;;;;;;5059101;28;20021;-51
2023/01/08 11:08:59;;;;;;;6.28;3.30;;;8.80;99.90;;;;;;5052592;28;20024;-52
2023/01/08 11:11:32;;;;;;;4.75;3.33;;;8.80;99.90;;;;;;5051830;28;20035;-51
2023/01/08 11:14:00;;;;;;;4.78;3.33;;;8.70;99.90;;;;;;5057310;28;20071;-52
2023/01/08 11:16:35;;;;;;;4.28;2.78;;;8.70;99.90;;;;;;5050189;28;20100;-52
2023/01/08 11:19:01;;;;;;;4.63;2.90;;;8.70;99.90;;;;;;5059699;28;20071;-53
2023/01/08 11:21:32;;;;;;;5.07;3.05;;;8.70;99.90;;;;;;5061448;28;20052;-50
2023/01/08 11:24:16;;;;;;;;;;;8.80;99.90;;;;;;5054932;28;20031;-52
2023/01/08 11:26:53;;;;;;;2.92;2.38;;;8.70;99.90;;;;;;5065847;28;20312;-52
2023/01/08 11:29:40;;;;;;;3.50;2.45;;;8.60;99.90;;;;;;5058529;28;20025;-52
2023/01/08 11:32:39;;;;;;;3.03;2.72;;;8.60;99.90;;;;;;5053044;28;20486;-52
2023/01/08 11:35:39;;;;;;;3.40;2.47;;;8.70;99.90;;;;;;5063567;28;20936;-52
2023/01/08 11:38:07;;;;;;;;;;;8.70;99.90;;;;;;5053530;28;20056;-50
2023/01/08 11:40:59;;;;;;;5.32;3.15;;;8.70;99.90;;;;;;5065304;28;19911;-51
2023/01/08 11:43:43;;;;;;;3.42;2.70;;;8.70;99.90;;;;;;5054959;28;20036;-51
2023/01/08 11:46:28;;;;;;;5.07;3.10;;;8.80;99.90;;;;;;5061392;28;20108;-51
2023/01/08 11:49:11;;;;;;;6.30;3.50;;;8.80;99.90;;;;;;5055856;28;20047;-51
2023/01/08 11:51:50;;;;;;;4.72;3.20;;;8.80;99.90;;;;;;5057555;28;20032;-53
2023/01/08 11:54:40;;;;;;;4.80;3.00;;;8.80;99.90;;;;;;5060601;28;20036;-50
2023/01/08 11:57:36;;;;;;;4.03;2.47;;;8.70;99.90;;;;;;5056957;28;20021;-53
2023/01/08 12:00:10;;;;;;;3.58;2.35;;;8.80;99.90;;;;;;5059405;28;20165;-50
2023/01/08 12:02:56;;;;;;;3.22;2.35;;;8.80;99.90;;;;;;5061250;28;20183;-50
2023/01/08 12:05:41;;;;;;;3.75;2.50;;;8.90;99.90;;;;;;5051369;28;20111;-50
2023/01/08 12:08:06;;;;;;;3.40;2.50;;;9.00;99.90;;;;;;5059368;28;20027;-51
2023/01/08 12:10:44;;;;;;;5.82;2.58;;;9.00;99.90;;;;;;5060399;28;20036;-50
2023/01/08 12:13:28;;;;;;;3.58;2.55;;;9.00;99.90;;;;;;5054101;28;20044;-53
2023/01/08 12:16:19;;;;;;;2.85;1.90;;;8.90;99.90;;;;;;5056319;28;20369;-50
2023/01/08 12:18:56;;;;;;;;;;;8.90;99.90;;;;;;5057249;28;20127;-51
2023/01/08 12:21:30;;;;;;;4.00;1.70;;;8.90;99.90;;;;;;5064647;28;20362;-52
2023/01/08 12:24:02;;;;;;;2.55;1.95;;;9.00;99.90;;;;;;5053466;28;20060;-50
2023/01/08 12:26:33;;;;;;;3.55;1.85;;;9.10;99.90;;;;;;5055425;28;20082;-51
2023/01/08 12:29:07;;;;;;;;;;;9.10;99.90;;;;;;5065012;28;20028;-50
2023/01/08 12:31:42;;;;;;;2.75;1.40;;;9.10;99.90;;;;;;5058437;28;20262;-50
2023/01/08 12:34:45;;;;;;;2.13;1.58;;;9.20;99.90;;;;;;5053729;28;20254;-50
2023/01/08 12:37:23;;;;;;;2.72;1.20;;;9.40;99.90;;;;;;5056837;28;20389;-50
2023/01/08 12:40:06;;;;;;;1.58;1.48;;;9.40;99.90;;;;;;5050318;28;20013;-52
2023/01/08 12:42:36;;;;;;;3.42;1.58;;;9.60;99.90;;;;;;5051165;28;20505;-49
2023/01/08 12:45:04;;;;;;;2.03;1.20;;;9.70;99.90;;;;;;5056763;28;20037;-50
2023/01/08 12:47:34;;;;;;;1.60;1.38;;;9.70;99.90;;;;;;5054600;28;20087;-50
2023/01/08 12:50:20;;;;;;;2.47;1.47;;;9.70;99.90;;;;;;5060260;28;20501;-50
2023/01/08 12:53:20;;;;;;;2.42;1.45;;;9.90;99.90;;;;;;5059880;28;20059;-49
2023/01/08 12:56:35;;;;;;;2.13;1.60;;;9.90;99.90;;;;;;5051751;28;20085;-50
2023/01/08 12:59:16;;;;;;;1.73;1.20;;;10.00;99.90;;;;;;5041221;28;20072;-50
2023/01/08 13:02:03;;;;;;;1.52;1.33;;;10.00;99.90;;;;;;5052231;28;20040;-50
2023/01/08 13:04:39;;;;;;;1.30;1.20;;;10.10;99.90;;;;;;5061831;28;20025;-50
2023/01/08 13:07:05;;;;;;;1.90;1.38;;;10.20;99.90;;;;;;5057245;28;20296;-49
2023/01/08 13:09:31;;;;;;;1.73;1.58;;;10.20;99.90;;;;;;5050017;28;20060;-52